createdAt,value
2024-03-05T00:00:54.289Z,78.96
2024-03-05T00:01:56.716Z,79.23
2024-03-05T00:02:58.341Z,79.11
2024-03-05T00:04:01.124Z,79.57
2024-03-05T00:05:04.948Z,78.62
2024-03-05T00:06:07.645Z,78.93
2024-03-05T00:07:09.216Z,79.05
2024-03-05T00:08:11.151Z,79.22
2024-03-05T00:09:12.758Z,79.29
2024-03-05T00:10:14.732Z,78.71
2024-03-05T00:11:16.605Z,78.98
2024-03-05T00:12:18.788Z,78.32
2024-03-05T00:13:20.581Z,78.78
2024-03-05T00:14:22.524Z,78.74
2024-03-05T00:15:24.097Z,78.88
2024-03-05T00:16:25.884Z,78.99
2024-03-05T00:17:27.991Z,78.19
2024-03-05T00:18:30.561Z,78.51
2024-03-05T00:19:32.360Z,78.42
2024-03-05T00:20:33.995Z,78.79
2024-03-05T00:21:35.891Z,78.95
2024-03-05T00:22:37.388Z,78.85
2024-03-05T00:23:39.758Z,79.03
2024-03-05T00:24:41.268Z,79.65
2024-03-05T00:25:43.393Z,79.22
2024-03-05T00:26:44.895Z,78.91
2024-03-05T00:27:46.415Z,78.66
2024-03-05T00:28:48.044Z,77.77
2024-03-05T00:29:49.632Z,77.78
2024-03-05T00:30:51.527Z,78.36
2024-03-05T00:31:53.081Z,78.54
2024-03-05T00:32:54.708Z,77.86
2024-03-05T00:33:57.060Z,78.35
2024-03-05T00:34:58.623Z,78.57
2024-03-05T00:36:00.236Z,78.40
2024-03-05T00:37:01.749Z,78.79
2024-03-05T00:38:09.153Z,79.11
2024-03-05T00:39:14.029Z,79.26
2024-03-05T00:40:15.706Z,79.45
2024-03-05T00:41:19.430Z,79.11
2024-03-05T00:42:21.008Z,78.99
2024-03-05T00:43:23.023Z,79.44
2024-03-05T00:44:24.898Z,79.46
2024-03-05T00:45:26.960Z,78.79
2024-03-05T00:46:28.557Z,79.12
2024-03-05T00:47:31.280Z,79.05
2024-03-05T00:48:33.213Z,79.52
2024-03-05T00:49:34.891Z,79.03
2024-03-05T00:50:36.488Z,79.26
2024-03-05T00:51:37.997Z,79.33
2024-03-05T00:52:39.650Z,79.26
2024-03-05T00:53:41.244Z,79.61
2024-03-05T00:54:42.836Z,79.35
2024-03-05T00:55:45.534Z,79.35
2024-03-05T00:56:47.374Z,79.43
2024-03-05T00:57:48.953Z,79.16
2024-03-05T00:58:51.642Z,79.19
2024-03-05T00:59:54.855Z,79.37
2024-03-05T01:00:56.519Z,79.25
2024-03-05T01:01:58.726Z,78.69
2024-03-05T01:03:00.426Z,77.96
2024-03-05T01:04:01.994Z,77.65
2024-03-05T01:05:06.628Z,78.38
2024-03-05T01:06:08.557Z,78.87
2024-03-05T01:07:11.402Z,78.74
2024-03-05T01:08:13.734Z,78.01
2024-03-05T01:09:20.259Z,78.80
2024-03-05T01:10:21.923Z,78.84
2024-03-05T01:11:23.495Z,79.14
2024-03-05T01:12:25.100Z,78.73
2024-03-05T01:13:28.081Z,78.43
2024-03-05T01:14:29.557Z,78.16
2024-03-05T01:15:31.200Z,78.35
2024-03-05T01:16:32.831Z,78.30
2024-03-05T01:17:34.372Z,78.67
2024-03-05T01:18:35.967Z,78.83
2024-03-05T01:19:37.749Z,78.87
2024-03-05T01:20:42.612Z,79.65
2024-03-05T01:21:44.201Z,79.71
2024-03-05T01:22:49.361Z,79.42
2024-03-05T01:23:50.973Z,79.71
2024-03-05T01:24:52.472Z,79.67
2024-03-05T01:25:54.117Z,79.72
2024-03-05T01:26:55.719Z,80.15
2024-03-05T01:27:59.146Z,79.71
2024-03-05T01:29:00.784Z,80.05
2024-03-05T01:30:02.497Z,80.56
2024-03-05T01:31:04.323Z,80.45
2024-03-05T01:32:06.137Z,80.25
2024-03-05T01:33:11.870Z,79.82
2024-03-05T01:34:13.432Z,80.06
2024-03-05T01:35:15.150Z,80.41
2024-03-05T01:36:17.073Z,80.22
2024-03-05T01:37:18.687Z,80.67
2024-03-05T01:38:21.620Z,80.36
2024-03-05T01:39:23.748Z,80.64
2024-03-05T01:40:25.885Z,80.75
2024-03-05T01:41:27.912Z,80.72
2024-03-05T01:42:29.392Z,80.76
2024-03-05T01:43:31.659Z,80.77
2024-03-05T01:44:34.556Z,80.67
2024-03-05T01:45:36.117Z,80.69
2024-03-05T01:46:37.937Z,80.77
2024-03-05T01:47:39.572Z,81.24
2024-03-05T01:48:45.091Z,80.63
2024-03-05T01:49:46.732Z,80.87
2024-03-05T01:50:48.556Z,81.71
2024-03-05T01:51:50.605Z,81.09
2024-03-05T01:52:52.228Z,80.67
2024-03-05T01:53:53.903Z,81.18
2024-03-05T01:55:01.494Z,81.18
2024-03-05T01:56:03.407Z,81.19
2024-03-05T01:57:05.128Z,81.41
2024-03-05T01:58:09.813Z,81.68
2024-03-05T01:59:12.123Z,81.79
2024-03-05T02:00:16.774Z,81.54
2024-03-05T02:01:19.067Z,81.82
2024-03-05T02:02:20.825Z,81.45
2024-03-05T02:03:22.471Z,81.62
2024-03-05T02:04:25.057Z,81.63
2024-03-05T02:05:26.774Z,81.84
2024-03-05T02:06:32.233Z,81.96
2024-03-05T02:07:36.691Z,81.40
2024-03-05T02:08:39.040Z,81.27
2024-03-05T02:09:40.635Z,81.70
2024-03-05T02:10:42.289Z,81.67
2024-03-05T02:12:48.304Z,81.61
2024-03-05T02:13:49.974Z,81.55
2024-03-05T02:14:52.702Z,81.40
2024-03-05T02:15:55.578Z,81.25
2024-03-05T02:16:59.316Z,81.48
2024-03-05T02:18:01.050Z,81.27
2024-03-05T02:19:04.427Z,80.83
2024-03-05T02:20:10.932Z,81.15
2024-03-05T02:21:22.313Z,80.99
2024-03-05T02:22:23.937Z,81.02
2024-03-05T02:23:25.735Z,81.23
2024-03-05T02:24:27.952Z,81.29
2024-03-05T02:25:32.383Z,80.86
2024-03-05T02:26:34.618Z,80.80
2024-03-05T02:27:40.095Z,81.20
2024-03-05T02:28:41.778Z,81.43
2024-03-05T02:29:43.990Z,80.84
2024-03-05T02:30:45.837Z,80.91
2024-03-05T02:31:47.714Z,81.09
2024-03-05T02:32:49.710Z,81.33
2024-03-05T02:33:51.607Z,81.44
2024-03-05T02:34:56.035Z,81.10
2024-03-05T02:35:58.709Z,81.27
2024-03-05T02:37:00.806Z,81.13
2024-03-05T02:38:02.479Z,81.20
2024-03-05T02:39:04.047Z,80.94
2024-03-05T02:40:10.242Z,80.74
2024-03-05T02:41:12.054Z,80.63
2024-03-05T02:42:13.691Z,81.08
2024-03-05T02:43:15.256Z,81.42
2024-03-05T02:44:19.758Z,81.07
2024-03-05T02:45:21.344Z,81.55
2024-03-05T02:46:22.968Z,81.34
2024-03-05T02:47:25.358Z,81.29
2024-03-05T02:48:27.079Z,81.15
2024-03-05T02:49:28.728Z,81.53
2024-03-05T02:50:30.343Z,81.45
2024-03-05T02:51:31.954Z,81.63
2024-03-05T02:52:33.548Z,81.47
2024-03-05T02:53:36.161Z,82.00
2024-03-05T02:54:37.782Z,81.75
2024-03-05T02:55:40.154Z,81.59
2024-03-05T02:56:41.768Z,81.40
2024-03-05T02:57:43.592Z,81.49
2024-03-05T02:58:45.210Z,81.42
2024-03-05T02:59:47.113Z,81.62
2024-03-05T03:00:48.732Z,81.73
2024-03-05T03:01:51.521Z,81.55
2024-03-05T03:02:53.205Z,81.40
2024-03-05T03:03:54.776Z,81.49
2024-03-05T03:04:56.498Z,81.18
2024-03-05T03:05:58.087Z,81.20
2024-03-05T03:06:59.676Z,81.25
2024-03-05T03:08:01.209Z,81.70
2024-03-05T03:09:04.237Z,81.19
2024-03-05T03:10:06.623Z,81.77
2024-03-05T03:11:08.885Z,81.38
2024-03-05T03:12:10.528Z,80.99
2024-03-05T03:13:12.662Z,80.63
2024-03-05T03:14:14.432Z,80.57
2024-03-05T03:15:19.048Z,80.88
2024-03-05T03:16:20.638Z,81.19
2024-03-05T03:17:22.286Z,81.19
2024-03-05T03:18:23.874Z,81.53
2024-03-05T03:19:25.490Z,82.15
2024-03-05T03:20:27.059Z,81.70
2024-03-05T03:21:28.523Z,81.34
2024-03-05T03:22:30.195Z,81.66
2024-03-05T03:23:31.807Z,81.34
2024-03-05T03:24:33.910Z,81.34
2024-03-05T03:25:36.952Z,81.72
2024-03-05T03:26:39.545Z,81.17
2024-03-05T03:27:41.997Z,81.43
2024-03-05T03:28:43.623Z,81.23
2024-03-05T03:29:45.283Z,81.73
2024-03-05T03:30:46.919Z,81.87
2024-03-05T03:31:48.566Z,82.13
2024-03-05T03:32:51.226Z,82.33
2024-03-05T03:33:53.265Z,82.17
2024-03-05T03:34:55.318Z,82.05
2024-03-05T03:35:57.111Z,82.12
2024-03-05T03:36:58.737Z,82.06
2024-03-05T03:38:01.822Z,82.25
2024-03-05T03:39:03.870Z,82.12
2024-03-05T03:40:09.330Z,82.03
2024-03-05T03:41:10.815Z,82.17
2024-03-05T03:42:12.299Z,82.56
2024-03-05T03:43:15.926Z,82.49
2024-03-05T03:44:18.620Z,82.36
2024-03-05T03:45:20.591Z,82.78
2024-03-05T03:46:22.434Z,82.77
2024-03-05T03:47:24.885Z,82.31
2024-03-05T03:48:26.356Z,81.81
2024-03-05T03:49:27.955Z,81.75
2024-03-05T03:50:29.820Z,81.36
2024-03-05T03:51:31.427Z,81.56
2024-03-05T03:52:34.075Z,81.39
2024-03-05T03:53:38.206Z,81.43
2024-03-05T03:54:39.822Z,81.45
2024-03-05T03:55:41.471Z,81.81
2024-03-05T03:56:43.101Z,81.84
2024-03-05T03:57:45.098Z,82.23
2024-03-05T03:58:46.702Z,81.77
2024-03-05T03:59:48.453Z,82.29
2024-03-05T04:00:50.576Z,82.23
2024-03-05T04:01:52.401Z,82.06
2024-03-05T04:02:54.197Z,82.06
2024-03-05T04:03:56.202Z,82.08
2024-03-05T04:04:57.830Z,81.95
2024-03-05T04:06:00.394Z,82.28
2024-03-05T04:07:02.010Z,81.61
2024-03-05T04:08:05.111Z,81.97
2024-03-05T04:09:10.422Z,81.69
2024-03-05T04:10:12.455Z,81.42
2024-03-05T04:11:14.163Z,81.28
2024-03-05T04:12:15.836Z,81.74
2024-03-05T04:13:18.947Z,81.42
2024-03-05T04:14:20.837Z,81.70
2024-03-05T04:15:23.032Z,81.90
2024-03-05T04:16:24.872Z,81.36
2024-03-05T04:17:26.934Z,81.60
2024-03-05T04:18:28.547Z,82.08
2024-03-05T04:19:32.096Z,81.57
2024-03-05T04:20:33.711Z,81.58
2024-03-05T04:22:06.666Z,81.65
2024-03-05T04:23:10.397Z,81.68
2024-03-05T04:24:15.314Z,81.75
2024-03-05T04:25:17.014Z,81.85
2024-03-05T04:26:24.619Z,81.95
2024-03-05T04:27:28.238Z,81.84
2024-03-05T04:28:37.395Z,81.22
2024-03-05T04:29:43.001Z,81.19
2024-03-05T04:30:48.270Z,81.32
2024-03-05T04:32:10.145Z,81.26
2024-03-05T04:33:12.411Z,81.93
2024-03-05T04:34:14.460Z,82.01
2024-03-05T04:35:17.542Z,82.05
2024-03-05T04:36:19.036Z,82.32
2024-03-05T04:37:20.497Z,82.58
2024-03-05T04:38:22.518Z,82.69
2024-03-05T04:39:24.128Z,82.24
2024-03-05T04:40:25.857Z,82.38
2024-03-05T04:41:27.514Z,82.29
2024-03-05T04:42:28.983Z,82.60
2024-03-05T04:43:30.530Z,82.52
2024-03-05T04:44:35.102Z,82.92
2024-03-05T04:45:39.027Z,82.65
2024-03-05T04:46:41.089Z,83.16
2024-03-05T04:47:42.895Z,83.08
2024-03-05T04:48:44.499Z,83.08
2024-03-05T04:49:45.986Z,83.09
2024-03-05T04:50:47.475Z,82.84
2024-03-05T04:51:50.748Z,82.54
2024-03-05T04:52:53.969Z,82.75
2024-03-05T04:53:56.745Z,82.43
2024-03-05T04:54:58.522Z,82.69
2024-03-05T04:56:00.077Z,82.70
2024-03-05T04:57:01.615Z,82.43
2024-03-05T04:58:03.158Z,82.73
2024-03-05T04:59:05.749Z,82.57
2024-03-05T05:00:21.419Z,82.01
2024-03-05T05:01:23.586Z,82.71
2024-03-05T05:02:25.230Z,81.94
2024-03-05T05:03:27.683Z,81.82
2024-03-05T05:04:29.193Z,81.87
2024-03-05T05:05:32.910Z,82.32
2024-03-05T05:06:34.511Z,82.10
2024-03-05T05:07:36.057Z,81.84
2024-03-05T05:08:37.921Z,82.09
2024-03-05T05:09:41.014Z,82.31
2024-03-05T05:10:42.884Z,82.46
2024-03-05T05:11:44.551Z,82.33
2024-03-05T05:12:46.426Z,82.77
2024-03-05T05:13:48.163Z,82.96
2024-03-05T05:14:50.569Z,82.79
2024-03-05T05:15:52.185Z,82.92
2024-03-05T05:16:53.711Z,82.54
2024-03-05T05:17:55.396Z,82.94
2024-03-05T05:18:56.909Z,82.94
2024-03-05T05:20:01.441Z,83.03
2024-03-05T05:21:03.313Z,82.78
2024-03-05T05:22:05.874Z,82.36
2024-03-05T05:23:07.406Z,82.22
2024-03-05T05:24:08.884Z,82.14
2024-03-05T05:25:10.451Z,82.07
2024-03-05T05:26:13.993Z,82.26
2024-03-05T05:27:15.601Z,81.79
2024-03-05T05:28:17.441Z,82.01
2024-03-05T05:29:27.270Z,81.85
2024-03-05T05:30:38.386Z,82.68
2024-03-05T05:31:39.965Z,82.09
2024-03-05T05:32:41.888Z,82.16
2024-03-05T05:33:43.520Z,81.85
2024-03-05T05:34:45.097Z,82.30
2024-03-05T05:35:46.659Z,81.83
2024-03-05T05:36:48.308Z,82.29
2024-03-05T05:37:49.975Z,82.21
2024-03-05T05:38:51.533Z,82.09
2024-03-05T05:39:53.219Z,82.22
2024-03-05T05:40:54.762Z,82.14
2024-03-05T05:41:56.412Z,82.14
2024-03-05T05:42:59.820Z,81.90
2024-03-05T05:44:01.627Z,82.59
2024-03-05T05:45:09.822Z,82.95
2024-03-05T05:46:20.324Z,82.62
2024-03-05T05:47:22.109Z,82.74
2024-03-05T05:48:29.494Z,83.54
2024-03-05T05:49:33.567Z,83.57
2024-03-05T05:50:35.263Z,83.63
2024-03-05T05:51:37.220Z,83.39
2024-03-05T05:52:39.033Z,83.71
2024-03-05T05:53:40.633Z,83.88
2024-03-05T05:54:44.937Z,83.77
2024-03-05T05:55:46.711Z,83.70
2024-03-05T05:56:49.574Z,83.55
2024-03-05T05:57:52.973Z,83.85
2024-03-05T05:58:55.267Z,84.41
2024-03-05T05:59:57.157Z,83.86
2024-03-05T06:00:58.730Z,83.91
2024-03-05T06:02:00.750Z,83.78
2024-03-05T06:03:04.500Z,83.42
2024-03-05T06:04:08.857Z,83.17
2024-03-05T06:05:10.536Z,83.85
2024-03-05T06:06:18.080Z,83.58
2024-03-05T06:07:19.889Z,83.87
2024-03-05T06:08:21.867Z,84.09
2024-03-05T06:09:29.438Z,83.92
2024-03-05T06:10:31.794Z,83.71
2024-03-05T06:11:33.627Z,83.94
2024-03-05T06:12:35.955Z,83.51
2024-03-05T06:13:37.632Z,83.32
2024-03-05T06:14:39.214Z,83.14
2024-03-05T06:15:40.987Z,83.75
2024-03-05T06:16:42.635Z,83.57
2024-03-05T06:17:44.756Z,84.01
2024-03-05T06:18:46.384Z,84.27
2024-03-05T06:19:47.903Z,83.47
2024-03-05T06:20:49.547Z,83.51
2024-03-05T06:21:51.340Z,84.00
2024-03-05T06:22:53.162Z,83.86
2024-03-05T06:23:54.758Z,83.82
2024-03-05T06:24:56.365Z,84.36
2024-03-05T06:25:58.026Z,84.15
2024-03-05T06:26:59.809Z,83.68
2024-03-05T06:28:01.452Z,83.76
2024-03-05T06:29:07.846Z,83.53
2024-03-05T06:30:14.443Z,83.89
2024-03-05T06:31:17.219Z,84.49
2024-03-05T06:32:19.046Z,84.45
2024-03-05T06:33:20.663Z,84.70
2024-03-05T06:34:22.248Z,84.52
2024-03-05T06:35:26.425Z,84.41
2024-03-05T06:36:28.562Z,84.53
2024-03-05T06:37:30.916Z,84.67
2024-03-05T06:38:32.932Z,84.47
2024-03-05T06:39:36.634Z,84.68
2024-03-05T06:40:38.221Z,84.58
2024-03-05T06:41:39.768Z,83.92
2024-03-05T06:43:04.284Z,83.59
2024-03-05T06:44:11.710Z,83.99
2024-03-05T06:45:16.293Z,83.67
2024-03-05T06:46:18.827Z,83.88
2024-03-05T06:47:28.376Z,83.09
2024-03-05T06:48:32.148Z,82.96
2024-03-05T06:49:40.026Z,82.83
2024-03-05T06:50:44.605Z,82.51
2024-03-05T06:51:58.106Z,82.59
2024-03-05T06:53:18.408Z,82.58
2024-03-05T06:54:39.627Z,82.81
2024-03-05T06:56:01.378Z,82.41
2024-03-05T06:57:03.445Z,82.85
2024-03-05T06:58:05.616Z,83.37
2024-03-05T06:59:07.600Z,83.49
2024-03-05T07:00:16.839Z,83.32
2024-03-05T07:01:21.666Z,83.38
2024-03-05T07:02:24.822Z,83.29
2024-03-05T07:03:26.735Z,82.67
2024-03-05T07:04:28.553Z,82.67
2024-03-05T07:05:30.116Z,82.46
2024-03-05T07:06:31.831Z,82.43
2024-03-05T07:07:34.544Z,82.04
2024-03-05T07:08:44.110Z,82.18
2024-03-05T07:09:46.068Z,81.73
2024-03-05T07:10:48.451Z,82.17
2024-03-05T07:11:50.180Z,81.97
2024-03-05T07:12:52.445Z,81.45
2024-03-05T07:13:55.352Z,82.39
2024-03-05T07:14:56.968Z,82.36
2024-03-05T07:15:58.397Z,82.43
2024-03-05T07:16:59.910Z,81.82
2024-03-05T07:18:02.895Z,81.49
2024-03-05T07:19:04.733Z,80.97
2024-03-05T07:20:16.785Z,80.64
2024-03-05T07:21:21.379Z,80.83
2024-03-05T07:22:24.378Z,79.81
2024-03-05T07:23:30.019Z,80.24
2024-03-05T07:24:31.628Z,80.26
2024-03-05T07:25:33.200Z,79.99
2024-03-05T07:26:36.017Z,80.01
2024-03-05T07:27:37.704Z,79.58
2024-03-05T07:28:39.627Z,79.04
2024-03-05T07:29:41.149Z,78.96
2024-03-05T07:30:43.769Z,78.97
2024-03-05T07:31:45.431Z,78.73
2024-03-05T07:32:49.058Z,78.27
2024-03-05T07:33:53.341Z,78.12
2024-03-05T07:35:06.566Z,78.55
2024-03-05T07:36:08.203Z,78.61
2024-03-05T07:37:09.861Z,78.41
2024-03-05T07:38:24.109Z,78.44
2024-03-05T07:39:25.987Z,78.52
2024-03-05T07:40:27.674Z,78.25
2024-03-05T07:41:34.119Z,77.38
2024-03-05T07:42:42.418Z,77.84
2024-03-05T07:43:44.112Z,77.46
2024-03-05T07:44:45.733Z,76.79
2024-03-05T07:45:49.483Z,76.11
2024-03-05T07:46:52.512Z,75.40
2024-03-05T07:47:54.285Z,75.55
2024-03-05T07:48:55.990Z,74.68
2024-03-05T07:49:57.701Z,74.97
2024-03-05T07:50:59.320Z,74.98
2024-03-05T07:52:01.038Z,74.99
2024-03-05T07:53:03.675Z,74.58
2024-03-05T07:54:14.803Z,74.40
2024-03-05T07:55:28.980Z,73.84
2024-03-05T07:57:56.892Z,73.53
2024-03-05T08:01:58.984Z,74.79
2024-03-05T08:03:00.785Z,75.07
2024-03-05T08:04:02.571Z,74.61
2024-03-05T08:05:05.524Z,75.34
2024-03-05T08:06:07.172Z,75.59
2024-03-05T08:07:08.706Z,75.42
2024-03-05T08:08:10.900Z,75.56
2024-03-05T08:09:13.383Z,76.13
2024-03-05T08:10:17.892Z,76.70
2024-03-05T08:11:19.677Z,76.62
2024-03-05T08:12:22.789Z,76.87
2024-03-05T08:13:24.446Z,76.30
2024-03-05T08:14:25.966Z,76.06
2024-03-05T08:15:27.713Z,76.35
2024-03-05T08:16:34.842Z,76.44
2024-03-05T08:17:37.846Z,76.68
2024-03-05T08:18:40.715Z,76.39
2024-03-05T08:19:42.831Z,76.87
2024-03-05T08:20:44.343Z,77.01
2024-03-05T08:21:45.881Z,76.41
2024-03-05T08:22:48.150Z,76.61
2024-03-05T08:23:52.342Z,76.15
2024-03-05T08:24:53.896Z,75.65
2024-03-05T08:25:55.600Z,75.43
2024-03-05T08:26:58.498Z,75.02
2024-03-05T08:28:00.234Z,74.10
2024-03-05T08:29:02.001Z,74.44
2024-03-05T08:30:04.574Z,74.49
2024-03-05T08:31:09.374Z,73.96
2024-03-05T08:32:10.915Z,73.72
2024-03-05T08:33:14.956Z,73.65
2024-03-05T08:34:16.663Z,73.16
2024-03-05T08:35:23.339Z,73.75
2024-03-05T08:36:26.620Z,73.18
2024-03-05T08:37:28.700Z,73.26
2024-03-05T08:38:30.633Z,72.77
2024-03-05T08:39:37.140Z,73.08
2024-03-05T08:40:38.757Z,72.86
2024-03-05T08:41:47.742Z,72.18
2024-03-05T08:42:57.916Z,73.62
2024-03-05T08:43:59.645Z,73.68
2024-03-05T08:45:01.371Z,74.05
2024-03-05T08:46:05.545Z,73.77
2024-03-05T08:47:08.204Z,73.75
2024-03-05T08:48:12.020Z,73.46
2024-03-05T08:49:13.758Z,72.55
2024-03-05T08:50:15.858Z,72.06
2024-03-05T08:51:19.076Z,70.76
2024-03-05T08:52:21.480Z,71.59
2024-03-05T08:53:23.351Z,72.10
2024-03-05T08:54:24.960Z,73.41
2024-03-05T08:55:27.436Z,73.04
2024-03-05T08:56:29.472Z,73.19
2024-03-05T08:57:31.107Z,72.42
2024-03-05T08:58:33.001Z,71.87
2024-03-05T08:59:35.467Z,72.13
2024-03-05T09:00:42.712Z,71.84
2024-03-05T09:01:45.527Z,71.45
2024-03-05T09:02:47.612Z,71.11
2024-03-05T09:03:49.204Z,70.43
2024-03-05T09:04:52.548Z,69.00
2024-03-05T09:05:54.263Z,68.04
2024-03-05T09:06:55.927Z,68.63
2024-03-05T09:07:57.589Z,68.83
2024-03-05T09:08:59.486Z,68.57
2024-03-05T09:10:01.039Z,68.55
2024-03-05T09:11:06.670Z,68.45
2024-03-05T09:12:08.509Z,68.12
2024-03-05T09:13:10.185Z,67.65
2024-03-05T09:14:12.213Z,67.26
2024-03-05T09:15:17.589Z,67.66
2024-03-05T09:16:19.423Z,67.83
2024-03-05T09:17:22.467Z,67.49
2024-03-05T09:18:24.049Z,66.97
2024-03-05T09:19:25.746Z,67.03
2024-03-05T09:20:27.351Z,66.73
2024-03-05T09:21:29.798Z,67.50
2024-03-05T09:22:31.821Z,67.88
2024-03-05T09:23:33.887Z,68.19
2024-03-05T09:24:36.551Z,67.95
2024-03-05T09:25:44.183Z,66.77
2024-03-05T09:43:05.267Z,65.21
2024-03-05T09:44:09.206Z,65.72
2024-03-05T09:45:16.190Z,65.30
2024-03-05T09:46:19.157Z,64.79
2024-03-05T09:47:21.631Z,65.32
2024-03-05T09:48:23.516Z,65.33
2024-03-05T09:49:26.350Z,64.95
2024-03-05T09:50:28.431Z,65.92
2024-03-05T09:51:31.313Z,65.56
2024-03-05T09:52:35.238Z,65.81
2024-03-05T09:53:38.164Z,65.67
2024-03-05T09:54:40.205Z,64.83
2024-03-05T09:55:42.180Z,65.16
2024-03-05T09:56:48.269Z,64.83
2024-03-05T09:57:50.540Z,64.23
2024-03-05T09:58:53.362Z,63.74
2024-03-05T09:59:55.875Z,64.64
2024-03-05T10:01:00.587Z,64.25
2024-03-05T10:02:02.814Z,63.43
2024-03-05T10:03:05.034Z,63.73
2024-03-05T10:04:12.452Z,63.26
2024-03-05T10:05:17.351Z,63.82
2024-03-05T10:06:19.449Z,63.89
2024-03-05T10:07:27.451Z,63.53
2024-03-05T10:08:29.826Z,63.85
2024-03-05T10:09:31.646Z,63.16
2024-03-05T10:10:36.009Z,63.22
2024-03-05T10:11:38.463Z,63.06
2024-03-05T10:14:13.343Z,63.79
2024-03-05T10:15:30.214Z,64.74
2024-03-05T10:16:40.624Z,64.05
2024-03-05T10:19:21.130Z,64.40
2024-03-05T10:23:01.408Z,64.73
2024-03-05T10:24:08.291Z,65.11
2024-03-05T10:26:36.240Z,65.83
2024-03-05T10:27:37.839Z,66.91
2024-03-05T10:28:39.473Z,66.70
2024-03-05T10:29:42.179Z,66.98
2024-03-05T10:30:44.254Z,66.36
2024-03-05T10:31:48.215Z,66.95
2024-03-05T10:32:56.415Z,66.94
2024-03-05T10:33:58.092Z,67.61
2024-03-05T10:35:00.818Z,67.74
2024-03-05T10:36:02.532Z,67.63
2024-03-05T10:37:05.407Z,67.45
2024-03-05T10:38:11.286Z,66.98
2024-03-05T10:39:14.180Z,66.84
2024-03-05T10:40:16.440Z,66.37
2024-03-05T10:41:53.714Z,65.91
2024-03-05T10:42:59.961Z,65.18
2024-03-05T10:44:02.132Z,65.21
2024-03-05T10:45:04.118Z,65.40
2024-03-05T10:46:05.785Z,65.42
2024-03-05T10:47:09.640Z,65.00
2024-03-05T10:48:13.503Z,64.93
2024-03-05T10:49:15.786Z,65.17
2024-03-05T10:50:19.398Z,64.72
2024-03-05T10:51:22.686Z,65.04
2024-03-05T10:52:28.330Z,65.32
2024-03-05T10:53:33.018Z,65.44
2024-03-05T10:54:38.620Z,64.84
2024-03-05T10:55:44.393Z,65.22
2024-03-05T10:56:46.735Z,64.83
2024-03-05T10:58:11.418Z,64.61
2024-03-05T10:59:31.512Z,64.43
2024-03-05T11:00:36.779Z,64.59
2024-03-05T11:01:40.686Z,64.79
2024-03-05T11:02:43.111Z,63.76
2024-03-05T11:03:46.172Z,63.13
2024-03-05T11:04:49.872Z,63.27
2024-03-05T11:05:53.240Z,62.45
2024-03-05T11:06:59.704Z,62.18
2024-03-05T11:08:02.301Z,62.33
2024-03-05T11:09:08.818Z,61.65
2024-03-05T11:10:13.523Z,62.02
2024-03-05T11:11:22.443Z,61.25
2024-03-05T11:12:24.951Z,61.40
2024-03-05T11:13:28.406Z,61.28
2024-03-05T11:14:31.525Z,61.97
2024-03-05T11:15:34.021Z,61.88
2024-03-05T11:16:35.723Z,61.60
2024-03-05T11:17:37.659Z,61.53
2024-03-05T11:18:40.377Z,61.08
2024-03-05T11:19:46.474Z,61.07
2024-03-05T11:20:48.668Z,61.62
2024-03-05T11:21:50.197Z,62.48
2024-03-05T11:22:52.691Z,61.79
2024-03-05T11:23:56.319Z,62.42
2024-03-05T11:25:02.232Z,62.12
2024-03-05T11:26:07.949Z,61.87
2024-03-05T11:27:13.542Z,61.87
2024-03-05T11:28:19.523Z,62.16
2024-03-05T11:29:27.463Z,61.74
2024-03-05T11:30:30.119Z,61.04
2024-03-05T11:31:31.968Z,61.23
2024-03-05T11:32:40.490Z,61.27
2024-03-05T11:33:42.245Z,61.48
2024-03-05T11:34:47.952Z,61.68
2024-03-05T11:35:49.543Z,62.07
2024-03-05T11:37:13.218Z,61.10
2024-03-05T11:38:20.005Z,60.93
2024-03-05T11:39:21.538Z,61.32
2024-03-05T11:40:35.425Z,61.77
2024-03-05T11:41:39.351Z,61.18
2024-03-05T11:42:47.909Z,61.43
2024-03-05T11:43:53.750Z,60.93
2024-03-05T11:44:55.374Z,60.62
2024-03-05T11:45:57.762Z,60.87
2024-03-05T11:46:59.669Z,60.65
2024-03-05T11:48:03.530Z,60.10
2024-03-05T11:49:06.084Z,59.01
2024-03-05T11:50:08.044Z,59.20
2024-03-05T11:51:09.814Z,60.03
2024-03-05T11:52:11.483Z,59.85
2024-03-05T11:53:16.585Z,60.27
2024-03-05T11:54:21.826Z,59.95
2024-03-05T11:55:26.184Z,60.28
2024-03-05T11:56:27.839Z,60.40
2024-03-05T11:57:29.361Z,60.97
2024-03-05T11:58:31.340Z,61.01
2024-03-05T11:59:50.295Z,60.45
2024-03-05T12:01:01.534Z,60.88
2024-03-05T12:02:09.225Z,60.57
2024-03-05T12:03:23.669Z,61.69
2024-03-05T12:04:29.409Z,62.56
2024-03-05T12:05:40.099Z,62.03
2024-03-05T12:06:51.480Z,61.86
2024-03-05T12:08:10.905Z,62.63
2024-03-05T12:09:20.308Z,62.33
2024-03-05T12:10:22.043Z,62.84
2024-03-05T12:11:23.927Z,62.86
2024-03-05T12:12:26.018Z,62.34
2024-03-05T12:13:28.473Z,62.07
2024-03-05T12:14:32.516Z,61.94
2024-03-05T12:15:36.661Z,61.68
2024-03-05T12:16:38.785Z,61.53
2024-03-05T12:17:42.008Z,61.03
2024-03-05T12:18:43.736Z,61.31
2024-03-05T12:19:47.815Z,60.35
2024-03-05T12:20:49.419Z,60.38
2024-03-05T12:21:50.975Z,60.40
2024-03-05T12:22:56.296Z,60.34
2024-03-05T12:24:00.156Z,58.64
2024-03-05T12:25:01.733Z,57.85
2024-03-05T12:26:04.817Z,58.60
2024-03-05T12:27:08.179Z,58.36
2024-03-05T12:28:10.408Z,57.70
2024-03-05T12:29:12.044Z,57.09
2024-03-05T12:30:14.191Z,56.96
2024-03-05T12:31:16.848Z,56.60
2024-03-05T12:32:19.777Z,56.98
2024-03-05T12:33:23.560Z,57.27
2024-03-05T12:34:27.013Z,57.18
2024-03-05T12:35:29.270Z,57.23
2024-03-05T12:36:30.859Z,57.03
2024-03-05T12:37:32.514Z,57.03
2024-03-05T12:38:34.160Z,57.81
2024-03-05T12:39:36.954Z,57.76
2024-03-05T12:40:38.618Z,57.45
2024-03-05T12:41:41.942Z,58.20
2024-03-05T12:42:47.574Z,58.27
2024-03-05T12:43:53.428Z,58.01
2024-03-05T12:45:11.131Z,58.07
2024-03-05T12:46:19.189Z,56.96
2024-03-05T12:47:21.078Z,56.43
2024-03-05T12:48:29.197Z,56.00
2024-03-05T12:49:33.225Z,56.04
2024-03-05T12:50:36.055Z,55.23
2024-03-05T12:51:37.580Z,54.50
2024-03-05T12:52:39.235Z,54.25
2024-03-05T12:53:42.144Z,54.76
2024-03-05T12:54:43.882Z,54.39
2024-03-05T12:55:45.489Z,53.97
2024-03-05T12:56:47.626Z,53.47
2024-03-05T12:57:49.176Z,53.59
2024-03-05T12:58:50.731Z,53.63
2024-03-05T12:59:52.480Z,53.99
2024-03-05T13:00:56.685Z,53.70
2024-03-05T13:01:59.645Z,54.04
2024-03-05T13:03:05.830Z,54.83
2024-03-05T13:04:07.363Z,54.48
2024-03-05T13:05:09.691Z,54.23
2024-03-05T13:06:12.385Z,54.53
2024-03-05T13:07:14.248Z,54.36
2024-03-05T13:08:15.909Z,54.43
2024-03-05T13:09:22.733Z,54.43
2024-03-05T13:10:24.430Z,54.77
2024-03-05T13:11:26.168Z,53.77
2024-03-05T13:12:28.771Z,54.36
2024-03-05T13:13:30.639Z,55.51
2024-03-05T13:14:32.361Z,55.79
2024-03-05T13:15:33.988Z,55.49
2024-03-05T13:16:35.848Z,56.35
2024-03-05T13:17:37.368Z,55.01
2024-03-05T13:18:38.916Z,54.89
2024-03-05T13:19:40.587Z,54.87
2024-03-05T13:20:42.690Z,54.83
2024-03-05T13:21:44.541Z,53.66
2024-03-05T13:22:54.875Z,54.66
2024-03-05T13:23:57.662Z,53.95
2024-03-05T13:24:59.186Z,54.02
2024-03-05T13:26:00.848Z,53.72
2024-03-05T13:27:04.471Z,53.50
2024-03-05T13:28:06.629Z,54.00
2024-03-05T13:29:09.870Z,53.83
2024-03-05T13:30:17.728Z,53.70
2024-03-05T13:31:19.298Z,54.77
2024-03-05T13:32:21.437Z,54.64
2024-03-05T13:33:24.901Z,54.85
2024-03-05T13:34:27.070Z,55.41
2024-03-05T13:35:28.580Z,56.08
2024-03-05T13:36:30.358Z,56.25
2024-03-05T13:37:35.240Z,56.53
2024-03-05T13:38:36.727Z,56.55
2024-03-05T13:39:44.975Z,58.51
2024-03-05T13:40:46.531Z,58.27
2024-03-05T13:41:49.558Z,58.25
2024-03-05T13:42:51.274Z,58.77
2024-03-05T13:43:52.897Z,58.51
2024-03-05T13:44:55.233Z,59.03
2024-03-05T13:45:58.547Z,58.54
2024-03-05T13:47:00.225Z,58.09
2024-03-05T13:48:01.859Z,58.32
2024-03-05T13:49:03.473Z,58.94
2024-03-05T13:50:13.033Z,59.17
2024-03-05T13:51:15.448Z,59.72
2024-03-05T13:52:16.921Z,60.71
2024-03-05T13:53:45.300Z,59.98
2024-03-05T13:54:46.847Z,60.93
2024-03-05T13:55:57.895Z,61.06
2024-03-05T13:57:00.624Z,61.74
2024-03-05T13:58:05.276Z,61.46
2024-03-05T13:59:06.942Z,60.69
2024-03-05T14:00:10.745Z,62.72
2024-03-05T14:01:12.704Z,61.62
2024-03-05T14:02:14.767Z,62.41
2024-03-05T14:03:16.340Z,62.96
2024-03-05T14:04:17.884Z,62.76
2024-03-05T14:05:19.663Z,63.15